DG5TKE Weather Reports


time (UTC)temp
C
wind
direction
speed
KPH
gust
KPH
rain 1hr
cm
rain 24hr
cm
rain mn
cm
humidity
%
barometer
mb
20200226012958 2 0 0.0 3.2 0.00 0.33 0.23 89 1000.2
20200226011958 3 156 1.6 4.8 0.00 0.33 0.23 89 1000.3
20200226010958 3 0 0.0 3.2 0.00 0.33 0.23 89 1000.4
20200226005958 3 138 3.2 8.0 0.03 0.33 0.23 89 1000.3
20200226004959 3 0 0.0 3.2 0.05 0.33 0.23 88 1000.3
20200226003958 3 0 0.0 3.2 0.05 0.33 0.23 88 1000.2
20200226001000 4 176 4.8 11.3 0.20 0.33 0.23 88 1000.4
20200225234958 3 184 4.8 9.7 0.18 0.30 0.18 88 1000.8
20200225233959 3 189 6.4 12.9 0.18 0.30 0.18 87 1000.8
20200225232958 4 210 6.4 17.7 0.15 0.25 0.15 86 1000.7
20200225231958 4 211 4.8 12.9 0.08 0.20 0.08 85 1000.9
20200225230958 5 194 6.4 19.3 0.03 0.15 0.03 83 1000.8
20200225225958 5 235 3.2 11.3 0.00 0.13 0.00 83 1000.8
20200225222958 5 0 0.0 4.8 0.00 0.13 0.13 88 1000.4
20200225220958 5 207 1.6 4.8 0.00 0.15 0.13 83 1000.5
20200225215958 5 244 1.6 6.4 0.00 0.15 0.13 83 1000.7
20200225214959 5 193 1.6 6.4 0.00 0.15 0.13 83 1000.7
20200225213958 4 133 1.6 4.8 0.00 0.15 0.13 83 1001.0
20200225212959 4 141 1.6 4.8 0.00 0.15 0.13 83 1001.1
20200225211959 4 198 1.6 6.4 0.00 0.15 0.13 83 1001.2
20200225205959 3 0 0.0 3.2 0.00 0.15 0.13 82 1001.6
20200225203958 3 194 1.6 3.2 0.00 0.15 0.13 81 1002.0
20200225202958 3 194 1.6 3.2 0.00 0.15 0.13 80 1002.1
20200225200958 3 194 1.6 3.2 0.00 0.15 0.13 80 1002.5
20200225194958 4 0 0.0 3.2 0.00 0.15 0.13 80 1002.7
20200225192959 5 194 1.6 3.2 0.00 0.15 0.13 80 1002.9
20200225191958 5 194 1.6 4.8 0.00 0.15 0.13 79 1003.2
20200225190958 5 194 1.6 4.8 0.00 0.15 0.13 79 1003.2
20200225184958 6 0 0.0 4.8 0.00 0.15 0.13 78 1003.5
20200225183958 6 195 3.2 4.8 0.00 0.15 0.13 78 1003.5
20200225182958 6 195 1.6 6.4 0.00 0.15 0.13 78 1003.7
20200225181958 6 0 0.0 4.8 0.00 0.15 0.13 77 1003.6
20200225181000 6 192 1.6 3.2 0.00 0.15 0.13 75 1003.6
20200225174000 7 0 0.0 1.6 0.00 0.15 0.13 69 1003.6
20200225172958 8 0 0.0 4.8 0.00 0.15 0.13 67 1003.6
20200225171958 8 190 1.6 4.8 0.00 0.15 0.13 66 1003.6
20200225171000 8 194 6.4 19.3 0.00 0.15 0.13 64 1003.8
20200225164000 8 0 0.0 3.2 0.00 0.15 0.13 60 1003.4
20200225160959 9 236 1.6 8.0 0.00 0.15 0.13 56 1003.5
20200225154959 10 236 1.6 8.0 0.00 0.15 0.13 58 1003.6
20200225151959 10 233 4.8 12.9 0.00 0.15 0.13 57 1003.7
20200225144959 10 200 6.4 14.5 0.00 0.15 0.13 57 1003.9
20200225143959 10 208 6.4 16.1 0.00 0.15 0.13 56 1003.8
20200225142959 10 237 6.4 24.1 0.00 0.15 0.13 55 1003.7
20200225141959 10 192 6.4 12.9 0.00 0.15 0.13 56 1004.0
20200225135959 11 227 6.4 17.7 0.00 0.18 0.13 56 1004.1
20200225133959 10 217 4.8 12.9 0.00 0.18 0.13 59 1004.5
20200225132000 10 192 6.4 16.1 0.00 0.18 0.13 61 1004.5
20200225130959 10 210 6.4 24.1 0.00 0.18 0.13 61 1004.5
20200225125959 10 229 9.7 25.7 0.00 0.18 0.13 62 1004.7
20200225124959 11 221 4.8 14.5 0.00 0.18 0.13 72 1004.5
20200225123959 11 196 4.8 16.1 0.03 0.18 0.13 77 1004.4
20200225122959 11 185 4.8 14.5 0.10 0.18 0.13 79 1004.3
20200225120959 10 185 3.2 8.0 0.13 0.18 0.13 88 1004.7
20200225115959 10 190 3.2 9.7 0.13 0.18 0.13 89 1004.7
20200225113959 9 267 4.8 19.3 0.10 0.15 0.10 84 1005.0
20200225112959 10 190 4.8 12.9 0.03 0.08 0.03 82 1004.7
20200225110959 11 184 6.4 16.1 0.00 0.05 0.00 76 1004.6
20200225105959 11 186 6.4 12.9 0.00 0.05 0.00 77 1004.8
20200225105000 11 192 8.0 12.9 0.00 0.05 0.00 78 1004.9
20200225103959 10 192 8.0 12.9 0.00 0.05 0.00 78 1005.1
20200225102959 10 190 6.4 14.5 0.00 0.05 0.00 79 1005.1
20200225102000 10 189 8.0 12.9 0.00 0.05 0.00 79 1005.1
20200225095959 10 190 6.4 16.1 0.00 0.05 0.00 78 1005.2
20200225094959 10 189 8.0 12.9 0.00 0.05 0.00 79 1005.1
20200225091959 10 190 9.7 19.3 0.00 0.05 0.00 79 1005.5
20200225090959 10 193 9.7 27.4 0.00 0.05 0.00 79 1005.6
20200225084959 10 187 8.0 17.7 0.00 0.05 0.00 80 1005.6
20200225083959 10 190 8.0 19.3 0.00 0.05 0.00 80 1005.6
20200225083000 10 193 4.8 9.7 0.00 0.05 0.00 80 1005.8
20200225080959 10 190 6.4 14.5 0.00 0.05 0.00 83 1005.9
20200225080000 10 198 4.8 11.3 0.00 0.05 0.00 86 1006.0
20200225073959 9 189 4.8 11.3 0.00 0.05 0.00 87 1006.3
20200225071959 10 189 4.8 11.3 0.00 0.05 0.00 80 1006.6
20200225064001 10 189 4.8 11.3 0.00 0.05 0.00 80 1006.9
20200225061959 10 189 4.8 11.3 0.00 0.05 0.00 80 1006.8
20200225061000 10 189 4.8 11.3 0.00 0.05 0.00 80 1006.8
20200225052000 10 189 4.8 11.3 0.00 0.05 0.00 80 1007.4
20200225051000 10 189 4.8 11.3 0.00 0.05 0.00 80 1007.2
20200225044000 10 188 3.2 11.3 0.00 0.05 0.00 80 1007.2
20200225042959 10 175 3.2 8.0 0.00 0.05 0.00 79 1007.2
20200225042000 10 186 4.8 12.9 0.00 0.05 0.00 79 1007.3
20200225041000 10 190 4.8 8.0 0.00 0.05 0.00 79 1007.3
20200225032000 10 173 3.2 9.7 0.00 0.05 0.00 79 1007.3
20200225031000 10 166 3.2 8.0 0.00 0.05 0.00 78 1007.5
20200225030000 10 193 4.8 11.3 0.00 0.05 0.00 78 1007.7
20200225021000 10 194 9.7 17.7 0.00 0.05 0.00 77 1008.1
20200225020000 10 195 8.0 14.5 0.00 0.05 0.00 77 1008.2
20200225015000 10 188 6.4 11.3 0.00 0.05 0.00 77 1008.4